createdAt,value
2017-07-03T00:01:24.789Z,15.50
2017-07-03T00:03:53.247Z,15.50
2017-07-03T00:06:21.656Z,15.50
2017-07-03T00:08:50.829Z,15.40
2017-07-03T00:11:19.252Z,15.40
2017-07-03T00:13:47.664Z,15.40
2017-07-03T00:16:17.068Z,15.40
2017-07-03T00:18:45.488Z,15.40
2017-07-03T00:21:14.669Z,15.30
2017-07-03T00:23:43.096Z,15.20
2017-07-03T00:26:11.492Z,15.30
2017-07-03T00:28:39.940Z,15.30
2017-07-03T00:31:09.115Z,15.20
2017-07-03T00:33:37.587Z,15.20
2017-07-03T00:36:06.012Z,15.10
2017-07-03T00:38:34.425Z,15.10
2017-07-03T00:41:03.560Z,15.10
2017-07-03T00:43:32.647Z,15.00
2017-07-03T00:46:01.820Z,14.90
2017-07-03T00:48:30.294Z,14.90
2017-07-03T00:50:58.714Z,14.90
2017-07-03T00:53:28.008Z,14.80
2017-07-03T00:55:57.291Z,14.80
2017-07-03T00:58:25.699Z,14.80
2017-07-03T01:00:54.133Z,14.80
2017-07-03T01:03:22.539Z,14.80
2017-07-03T01:05:51.309Z,14.80
2017-07-03T01:08:19.724Z,14.70
2017-07-03T01:10:48.152Z,14.70
2017-07-03T01:13:16.556Z,14.70
2017-07-03T01:15:45.747Z,14.70
2017-07-03T01:18:14.369Z,14.70
2017-07-03T01:20:44.237Z,14.70
2017-07-03T01:23:12.652Z,14.60
2017-07-03T01:25:41.084Z,14.60
2017-07-03T01:28:09.516Z,14.60
2017-07-03T01:30:37.940Z,14.60
2017-07-03T01:33:06.090Z,14.50
2017-07-03T01:35:35.947Z,14.40
2017-07-03T01:38:05.143Z,14.50
2017-07-03T01:40:33.546Z,14.40
2017-07-03T01:43:02.028Z,14.50
2017-07-03T01:45:30.496Z,14.40
2017-07-03T01:47:59.677Z,14.40
2017-07-03T01:50:28.516Z,14.40
2017-07-03T01:52:56.920Z,14.40
2017-07-03T01:55:25.372Z,14.30
2017-07-03T01:57:53.774Z,14.30
2017-07-03T02:00:22.196Z,14.20
2017-07-03T02:02:51.393Z,14.20
2017-07-03T02:05:20.573Z,14.20
2017-07-03T02:07:49.010Z,14.20
2017-07-03T02:10:17.432Z,14.20
2017-07-03T02:12:46.608Z,14.20
2017-07-03T02:15:15.032Z,14.10
2017-07-03T02:17:43.511Z,14.10
2017-07-03T02:20:11.949Z,14.20
2017-07-03T02:22:40.361Z,14.10
2017-07-03T02:25:09.544Z,14.10
2017-07-03T02:27:38.756Z,14.00
2017-07-03T02:30:07.932Z,14.00
2017-07-03T02:32:36.377Z,14.00
2017-07-03T02:35:04.805Z,14.00
2017-07-03T02:37:33.988Z,14.00
2017-07-03T02:40:03.194Z,14.00
2017-07-03T02:42:32.384Z,13.90
2017-07-03T02:45:01.609Z,13.90
2017-07-03T02:47:30.020Z,13.90
2017-07-03T02:49:58.435Z,13.90
2017-07-03T02:52:26.863Z,13.90
2017-07-03T02:54:55.280Z,13.90
2017-07-03T02:57:23.724Z,13.90
2017-07-03T02:59:52.518Z,13.90
2017-07-03T03:02:20.965Z,13.90
2017-07-03T03:04:49.388Z,13.90
2017-07-03T03:07:17.811Z,13.90
2017-07-03T03:09:47.016Z,13.90
2017-07-03T03:12:15.428Z,13.90
2017-07-03T03:14:43.843Z,13.90
2017-07-03T03:17:12.275Z,13.90
2017-07-03T03:19:40.680Z,13.80
2017-07-03T03:22:09.109Z,13.80
2017-07-03T03:24:37.528Z,13.80
2017-07-03T03:27:06.436Z,13.70
2017-07-03T03:29:34.889Z,13.70
2017-07-03T03:32:03.343Z,13.70
2017-07-03T03:34:31.777Z,13.60
2017-07-03T03:37:00.186Z,13.60
2017-07-03T03:39:29.382Z,13.60
2017-07-03T03:41:58.557Z,13.60
2017-07-03T03:44:27.064Z,13.50
2017-07-03T03:46:55.477Z,13.60
2017-07-03T03:49:23.883Z,13.60
2017-07-03T03:51:52.299Z,13.60
2017-07-03T03:54:21.463Z,13.60
2017-07-03T03:56:49.892Z,13.60
2017-07-03T03:59:18.296Z,13.70
2017-07-03T04:01:46.737Z,13.70
2017-07-03T04:04:15.160Z,13.60
2017-07-03T04:06:43.588Z,13.60
2017-07-03T04:09:12.787Z,13.60
2017-07-03T04:11:41.199Z,13.60
2017-07-03T04:14:09.616Z,13.60
2017-07-03T04:16:38.056Z,13.60
2017-07-03T04:19:06.509Z,13.60
2017-07-03T04:21:36.285Z,13.60
2017-07-03T04:24:04.712Z,13.60
2017-07-03T04:26:33.140Z,13.70
2017-07-03T04:29:01.547Z,13.70
2017-07-03T04:31:30.745Z,13.80
2017-07-03T04:33:59.172Z,13.80
2017-07-03T04:36:28.296Z,13.90
2017-07-03T04:38:56.717Z,13.90
2017-07-03T04:41:25.136Z,13.90
2017-07-03T04:43:53.828Z,14.00
2017-07-03T04:46:22.235Z,14.10
2017-07-03T04:48:51.438Z,14.00
2017-07-03T04:51:19.850Z,14.00
2017-07-03T04:53:48.283Z,14.00
2017-07-03T04:56:17.456Z,14.10
2017-07-03T04:58:45.881Z,14.00
2017-07-03T05:01:14.300Z,14.20
2017-07-03T05:03:43.408Z,14.20
2017-07-03T05:06:11.863Z,14.20
2017-07-03T05:08:40.956Z,14.30
2017-07-03T05:11:09.383Z,14.40
2017-07-03T05:13:38.561Z,14.50
2017-07-03T05:16:06.981Z,14.40
2017-07-03T05:18:35.412Z,14.50
2017-07-03T05:21:03.836Z,14.50
2017-07-03T05:23:32.275Z,14.60
2017-07-03T05:26:00.675Z,14.50
2017-07-03T05:28:29.576Z,14.50
2017-07-03T05:30:57.794Z,14.50
2017-07-03T05:33:26.229Z,14.60
2017-07-03T05:35:55.328Z,14.60
2017-07-03T05:38:23.752Z,14.70
2017-07-03T05:40:52.002Z,14.60
2017-07-03T05:43:26.076Z,14.70
2017-07-03T05:45:55.275Z,14.70
2017-07-03T05:48:24.459Z,14.60
2017-07-03T05:50:52.926Z,14.60
2017-07-03T05:53:21.349Z,14.70
2017-07-03T05:55:49.775Z,14.80
2017-07-03T05:58:18.196Z,14.80
2017-07-03T06:00:47.184Z,14.90
2017-07-03T06:03:16.394Z,15.00
2017-07-03T06:05:44.804Z,15.00
2017-07-03T06:08:13.239Z,15.10
2017-07-03T06:10:42.419Z,15.20
2017-07-03T06:13:11.603Z,15.20
2017-07-03T06:15:40.045Z,15.20
2017-07-03T06:18:08.509Z,15.30
2017-07-03T06:20:36.956Z,15.40
2017-07-03T06:23:05.356Z,15.50
2017-07-03T06:25:33.793Z,15.50
2017-07-03T06:28:02.220Z,15.50
2017-07-03T06:30:30.699Z,15.60
2017-07-03T06:32:59.115Z,15.70
2017-07-03T06:35:27.545Z,15.70
2017-07-03T06:37:56.708Z,15.80
2017-07-03T06:40:24.806Z,15.70
2017-07-03T06:42:53.240Z,15.80
2017-07-03T06:45:21.739Z,15.90
2017-07-03T06:47:50.148Z,15.90
2017-07-03T06:50:19.367Z,16.10
2017-07-03T06:52:47.776Z,16.10
2017-07-03T06:55:16.208Z,16.10
2017-07-03T06:57:45.388Z,16.20
2017-07-03T07:00:13.902Z,16.20
2017-07-03T07:02:42.316Z,16.30
2017-07-03T07:05:10.724Z,16.40
2017-07-03T07:07:39.931Z,16.40
2017-07-03T07:10:09.099Z,16.40
2017-07-03T07:12:37.619Z,16.40
2017-07-03T07:15:06.067Z,16.50
2017-07-03T07:17:34.499Z,16.60
2017-07-03T07:20:02.924Z,16.70
2017-07-03T07:22:31.347Z,16.70
2017-07-03T07:24:59.778Z,16.80
2017-07-03T07:27:28.187Z,16.80
2017-07-03T07:29:57.392Z,16.90
2017-07-03T07:32:25.805Z,16.90
2017-07-03T07:34:54.212Z,16.90
2017-07-03T07:37:22.637Z,17.00
2017-07-03T07:39:51.052Z,17.00
2017-07-03T07:42:19.475Z,17.10
2017-07-03T07:44:48.666Z,17.20
2017-07-03T07:47:17.987Z,17.30
2017-07-03T07:49:46.459Z,17.30
2017-07-03T07:52:14.933Z,17.30
2017-07-03T07:54:44.124Z,17.40
2017-07-03T07:57:13.313Z,17.40
2017-07-03T07:59:42.520Z,17.50
2017-07-03T08:02:11.683Z,17.60
2017-07-03T08:04:40.112Z,17.50
2017-07-03T08:07:08.583Z,17.70
2017-07-03T08:09:37.003Z,17.90
2017-07-03T08:12:05.069Z,17.90
2017-07-03T08:14:33.499Z,18.00
2017-07-03T08:17:02.608Z,18.10
2017-07-03T08:19:31.023Z,18.20
2017-07-03T08:21:59.476Z,18.10
2017-07-03T08:24:27.897Z,18.10
2017-07-03T08:26:56.327Z,18.10
2017-07-03T08:29:24.760Z,18.20
2017-07-03T08:31:53.164Z,18.30
2017-07-03T08:34:22.344Z,18.30
2017-07-03T08:36:50.760Z,18.30
2017-07-03T08:39:19.196Z,18.40
2017-07-03T08:41:47.607Z,18.60
2017-07-03T08:44:16.027Z,18.80
2017-07-03T08:46:44.444Z,18.70
2017-07-03T08:49:13.635Z,19.10
2017-07-03T08:51:42.057Z,19.10
2017-07-03T08:54:10.456Z,19.30
2017-07-03T08:56:40.387Z,19.40
2017-07-03T08:59:08.791Z,19.60
2017-07-03T09:01:38.125Z,19.80
2017-07-03T09:04:06.196Z,20.00
2017-07-03T09:06:34.624Z,20.30
2017-07-03T09:09:03.072Z,20.40
2017-07-03T09:11:31.485Z,20.60
2017-07-03T09:13:59.922Z,20.80
2017-07-03T09:16:31.674Z,21.10
2017-07-03T09:19:00.146Z,21.20
2017-07-03T09:21:28.569Z,21.30
2017-07-03T09:23:56.977Z,21.40
2017-07-03T09:26:26.165Z,21.60
2017-07-03T09:28:54.598Z,21.60
2017-07-03T09:31:23.028Z,21.70
2017-07-03T09:33:52.213Z,22.10
2017-07-03T09:36:20.648Z,22.10
2017-07-03T09:38:52.018Z,22.30
2017-07-03T09:41:20.448Z,22.40
2017-07-03T09:43:49.642Z,22.60
2017-07-03T09:46:18.824Z,22.70
2017-07-03T09:48:47.245Z,22.70
2017-07-03T09:51:15.656Z,22.90
2017-07-03T09:53:44.088Z,23.20
2017-07-03T09:56:12.520Z,23.40
2017-07-03T09:58:40.974Z,23.60
2017-07-03T10:01:09.379Z,23.90
2017-07-03T10:03:37.837Z,24.10
2017-07-03T10:06:06.277Z,24.30
2017-07-03T10:08:35.457Z,24.40
2017-07-03T10:11:03.893Z,24.40
2017-07-03T10:13:32.301Z,24.60
2017-07-03T10:16:00.740Z,24.70
2017-07-03T10:18:29.160Z,24.90
2017-07-03T10:20:57.586Z,24.90
2017-07-03T10:23:26.065Z,25.10
2017-07-03T10:25:54.463Z,25.20
2017-07-03T10:28:22.897Z,25.20
2017-07-03T10:30:51.136Z,25.30
2017-07-03T10:33:19.764Z,25.30
2017-07-03T10:35:48.177Z,25.30
2017-07-03T10:38:16.599Z,25.10
2017-07-03T10:40:45.043Z,25.00
2017-07-03T10:43:13.481Z,25.00
2017-07-03T10:45:41.902Z,25.00
2017-07-03T10:48:10.316Z,25.00
2017-07-03T10:50:39.524Z,25.10
2017-07-03T10:53:07.929Z,25.00
2017-07-03T10:55:36.362Z,25.00
2017-07-03T10:58:04.795Z,24.60
2017-07-03T11:00:33.201Z,24.50
2017-07-03T11:03:01.661Z,24.60
2017-07-03T11:05:30.060Z,24.60
2017-07-03T11:07:58.504Z,24.60
2017-07-03T11:10:26.912Z,24.70
2017-07-03T11:12:55.341Z,24.90
2017-07-03T11:15:23.760Z,24.90
2017-07-03T11:17:52.171Z,25.10
2017-07-03T11:20:20.596Z,25.30
2017-07-03T11:22:49.020Z,25.50
2017-07-03T11:25:17.462Z,25.70
2017-07-03T11:27:45.895Z,25.50
2017-07-03T11:30:15.071Z,24.70
2017-07-03T11:32:43.503Z,24.70
2017-07-03T11:35:13.373Z,24.40
2017-07-03T11:37:41.816Z,24.40
2017-07-03T11:40:10.229Z,24.40
2017-07-03T11:42:38.670Z,24.30
2017-07-03T11:45:07.104Z,24.30
2017-07-03T11:47:36.332Z,24.30
2017-07-03T11:50:04.775Z,24.20
2017-07-03T11:52:33.181Z,24.30
2017-07-03T11:55:01.613Z,24.20
2017-07-03T11:57:30.042Z,24.30
2017-07-03T11:59:58.546Z,24.30
2017-07-03T12:02:26.978Z,24.40
2017-07-03T12:04:56.190Z,24.50
2017-07-03T12:07:24.690Z,24.40
2017-07-03T12:09:53.116Z,24.50
2017-07-03T12:12:21.555Z,24.50
2017-07-03T12:14:49.978Z,24.40
2017-07-03T12:17:19.189Z,24.30
2017-07-03T12:19:48.361Z,24.30
2017-07-03T12:22:16.824Z,24.30
2017-07-03T12:24:45.240Z,24.20
2017-07-03T12:27:14.421Z,24.10
2017-07-03T12:29:42.929Z,24.10
2017-07-03T12:32:12.111Z,24.20
2017-07-03T12:34:41.310Z,24.30
2017-07-03T12:37:12.519Z,24.40
2017-07-03T12:39:41.767Z,24.40
2017-07-03T12:42:10.951Z,24.20
2017-07-03T12:44:40.125Z,24.10
2017-07-03T12:47:08.700Z,24.10
2017-07-03T12:49:39.731Z,24.10
2017-07-03T12:52:08.171Z,24.10
2017-07-03T12:54:36.574Z,24.10
2017-07-03T12:57:05.019Z,24.10
2017-07-03T12:59:33.455Z,24.20
2017-07-03T13:02:01.877Z,24.30
2017-07-03T13:04:30.299Z,24.30
2017-07-03T13:06:58.716Z,24.40
2017-07-03T13:09:27.945Z,24.60
2017-07-03T13:11:56.382Z,24.50
2017-07-03T13:14:24.813Z,24.50
2017-07-03T13:16:53.240Z,24.60
2017-07-03T13:19:21.667Z,24.60
2017-07-03T13:21:50.099Z,24.60
2017-07-03T13:24:18.666Z,24.60
2017-07-03T13:26:47.090Z,24.60
2017-07-03T13:29:16.449Z,24.40
2017-07-03T13:31:44.882Z,24.50
2017-07-03T13:34:13.308Z,24.40
2017-07-03T13:36:41.849Z,24.50
2017-07-03T13:39:10.279Z,24.50
2017-07-03T13:41:38.709Z,24.40
2017-07-03T13:44:07.186Z,24.40
2017-07-03T13:46:35.612Z,24.40
2017-07-03T13:49:05.732Z,24.40
2017-07-03T13:51:35.105Z,24.40
2017-07-03T13:54:03.671Z,24.30
2017-07-03T13:56:32.245Z,24.30
2017-07-03T13:59:00.674Z,24.20
2017-07-03T14:01:29.275Z,24.20
2017-07-03T14:03:57.822Z,24.20
2017-07-03T14:06:26.236Z,24.30
2017-07-03T14:08:54.990Z,24.20
2017-07-03T14:11:23.485Z,24.20
2017-07-03T14:13:52.495Z,24.20
2017-07-03T14:16:21.691Z,24.20
2017-07-03T14:18:50.899Z,24.20
2017-07-03T14:21:20.063Z,24.10
2017-07-03T14:23:48.735Z,24.10
2017-07-03T14:26:17.232Z,24.10
2017-07-03T14:28:45.648Z,24.10
2017-07-03T14:31:14.086Z,24.10
2017-07-03T14:33:42.517Z,24.10
2017-07-03T14:36:11.393Z,24.00
2017-07-03T14:38:39.815Z,24.00
2017-07-03T14:41:08.231Z,24.10
2017-07-03T14:43:37.587Z,24.10
2017-07-03T14:46:06.002Z,24.10
2017-07-03T14:48:34.416Z,24.10
2017-07-03T14:51:02.843Z,24.10
2017-07-03T14:53:31.301Z,24.20
2017-07-03T14:55:59.724Z,24.20
2017-07-03T14:58:28.963Z,24.30
2017-07-03T15:00:57.384Z,24.20
2017-07-03T15:03:25.799Z,24.30
2017-07-03T15:05:54.227Z,24.30
2017-07-03T15:08:22.765Z,24.20
2017-07-03T15:10:51.342Z,24.10
2017-07-03T15:13:20.939Z,24.10
2017-07-03T15:15:49.377Z,24.00
2017-07-03T15:18:17.804Z,24.10
2017-07-03T15:20:46.992Z,24.20
2017-07-03T15:23:16.201Z,24.20
2017-07-03T15:25:44.604Z,24.20
2017-07-03T15:28:13.041Z,24.20
2017-07-03T15:30:42.257Z,24.20
2017-07-03T15:33:11.460Z,24.20
2017-07-03T15:35:40.165Z,24.20
2017-07-03T15:38:08.593Z,24.20
2017-07-03T15:40:37.805Z,24.20
2017-07-03T15:43:06.638Z,24.10
2017-07-03T15:45:35.072Z,24.10
2017-07-03T15:48:04.256Z,24.00
2017-07-03T15:50:32.948Z,24.00
2017-07-03T15:53:02.159Z,23.90
2017-07-03T15:55:30.587Z,23.90
2017-07-03T15:57:59.085Z,23.90
2017-07-03T16:00:27.518Z,23.90
2017-07-03T16:02:55.945Z,23.90
2017-07-03T16:05:24.370Z,24.00
2017-07-03T16:07:52.778Z,24.00
2017-07-03T16:10:21.219Z,24.10
2017-07-03T16:12:49.658Z,24.10
2017-07-03T16:15:18.089Z,24.20
2017-07-03T16:17:46.522Z,24.20
2017-07-03T16:20:14.947Z,24.20
2017-07-03T16:22:43.400Z,24.20
2017-07-03T16:25:12.579Z,24.20
2017-07-03T16:27:41.277Z,24.10
2017-07-03T16:30:10.457Z,24.10
2017-07-03T16:32:38.963Z,24.00
2017-07-03T16:35:07.405Z,24.00
2017-07-03T16:37:35.924Z,24.00
2017-07-03T16:40:04.468Z,23.90
2017-07-03T16:42:32.895Z,23.80
2017-07-03T16:45:01.332Z,23.80
2017-07-03T16:47:29.755Z,23.80
2017-07-03T16:49:58.308Z,23.80
2017-07-03T16:52:27.583Z,23.80
2017-07-03T16:54:56.025Z,23.70
2017-07-03T16:57:24.449Z,23.80
2017-07-03T16:59:52.879Z,23.80
2017-07-03T17:02:21.316Z,23.80
2017-07-03T17:04:49.735Z,23.70
2017-07-03T17:07:18.179Z,23.70
2017-07-03T17:09:47.396Z,23.70
2017-07-03T17:12:15.801Z,23.70
2017-07-03T17:14:44.240Z,23.70
2017-07-03T17:17:13.432Z,23.60
2017-07-03T17:19:42.628Z,23.60
2017-07-03T17:22:11.844Z,23.60
2017-07-03T17:24:40.295Z,23.60
2017-07-03T17:27:08.721Z,23.60
2017-07-03T17:29:38.573Z,23.50
2017-07-03T17:32:07.014Z,23.50
2017-07-03T17:34:35.446Z,23.50
2017-07-03T17:37:04.644Z,23.50
2017-07-03T17:39:33.066Z,23.50
2017-07-03T17:42:01.510Z,23.50
2017-07-03T17:44:30.691Z,23.50
2017-07-03T17:46:59.110Z,23.50
2017-07-03T17:49:27.537Z,23.50
2017-07-03T17:51:55.960Z,23.40
2017-07-03T17:54:25.145Z,23.40
2017-07-03T17:56:54.332Z,23.40
2017-07-03T17:59:23.541Z,23.30
2017-07-03T18:01:52.736Z,23.30
2017-07-03T18:04:21.904Z,23.30
2017-07-03T18:06:50.333Z,23.20
2017-07-03T18:09:18.388Z,23.30
2017-07-03T18:11:46.821Z,23.30
2017-07-03T18:14:15.240Z,23.30
2017-07-03T18:16:44.460Z,23.20
2017-07-03T18:19:12.893Z,23.20
2017-07-03T18:21:41.303Z,23.20
2017-07-03T18:24:09.740Z,23.20
2017-07-03T18:26:38.152Z,23.20
2017-07-03T18:29:07.338Z,23.10
2017-07-03T18:31:35.757Z,23.10
2017-07-03T18:34:04.193Z,23.10
2017-07-03T18:36:33.384Z,23.00
2017-07-03T18:39:01.797Z,23.00
2017-07-03T18:41:30.229Z,23.00
2017-07-03T18:43:58.630Z,23.00
2017-07-03T18:46:27.850Z,22.90
2017-07-03T18:48:57.022Z,22.80
2017-07-03T18:51:26.232Z,22.80
2017-07-03T18:53:55.413Z,22.70
2017-07-03T18:56:23.924Z,22.70
2017-07-03T18:58:52.532Z,22.70
2017-07-03T19:01:20.958Z,22.70
2017-07-03T19:03:49.377Z,22.60
2017-07-03T19:06:17.787Z,22.70
2017-07-03T19:08:45.561Z,22.70
2017-07-03T19:11:14.017Z,22.70
2017-07-03T19:13:42.449Z,22.70
2017-07-03T19:16:11.641Z,22.70
2017-07-03T19:18:40.784Z,22.70
2017-07-03T19:21:09.215Z,22.70
2017-07-03T19:23:38.396Z,22.60
2017-07-03T19:26:06.856Z,22.50
2017-07-03T19:28:35.282Z,22.50
2017-07-03T19:31:04.478Z,22.40
2017-07-03T19:33:33.696Z,22.40
2017-07-03T19:36:02.112Z,22.40
2017-07-03T19:38:30.536Z,22.40
2017-07-03T19:40:58.970Z,22.30
2017-07-03T19:43:27.418Z,22.30
2017-07-03T19:45:55.824Z,22.30
2017-07-03T19:48:24.237Z,22.30
2017-07-03T19:50:53.461Z,22.30
2017-07-03T19:53:21.876Z,22.20
2017-07-03T19:55:50.320Z,22.20
2017-07-03T19:58:18.737Z,22.20
2017-07-03T20:00:47.215Z,22.20
2017-07-03T20:03:15.621Z,22.20
2017-07-03T20:05:44.017Z,22.20
2017-07-03T20:08:13.216Z,22.10
2017-07-03T20:10:42.409Z,22.10
2017-07-03T20:13:11.627Z,22.10
2017-07-03T20:15:40.059Z,22.10
2017-07-03T20:18:08.507Z,22.10
2017-07-03T20:20:36.936Z,22.10
2017-07-03T20:23:05.604Z,22.10
2017-07-03T20:25:34.070Z,22.10
2017-07-03T20:28:02.481Z,22.00
2017-07-03T20:30:31.669Z,22.00
2017-07-03T20:33:00.861Z,22.00
2017-07-03T20:35:30.078Z,21.90
2017-07-03T20:37:59.286Z,21.90
2017-07-03T20:40:28.472Z,21.90
2017-07-03T20:42:57.724Z,21.90
2017-07-03T20:45:26.139Z,21.90
2017-07-03T20:47:55.343Z,21.90
2017-07-03T20:50:24.537Z,21.80
2017-07-03T20:52:53.753Z,21.80
2017-07-03T20:55:22.212Z,21.80
2017-07-03T20:57:50.664Z,21.80
2017-07-03T21:00:19.094Z,21.80
2017-07-03T21:02:47.510Z,21.70
2017-07-03T21:05:15.929Z,21.70
2017-07-03T21:07:45.122Z,21.70
2017-07-03T21:10:14.333Z,21.70
2017-07-03T21:12:43.526Z,21.70
2017-07-03T21:15:12.218Z,21.60
2017-07-03T21:17:40.645Z,21.70
2017-07-03T21:20:09.088Z,21.60
2017-07-03T21:22:37.720Z,21.60
2017-07-03T21:25:06.159Z,21.60
2017-07-03T21:27:34.630Z,21.60
2017-07-03T21:30:03.039Z,21.60
2017-07-03T21:32:31.470Z,21.60
2017-07-03T21:35:00.665Z,21.60
2017-07-03T21:37:29.849Z,21.60
2017-07-03T21:39:58.375Z,21.50
2017-07-03T21:42:26.796Z,21.50
2017-07-03T21:44:54.879Z,21.50
2017-07-03T21:47:24.076Z,21.40
2017-07-03T21:49:52.522Z,21.40
2017-07-03T21:52:20.933Z,21.40
2017-07-03T21:54:49.341Z,21.30
2017-07-03T21:57:17.782Z,21.30
2017-07-03T21:59:46.201Z,21.30
2017-07-03T22:02:14.636Z,21.30
2017-07-03T22:04:43.051Z,21.40
2017-07-03T22:07:11.776Z,21.40
2017-07-03T22:09:40.374Z,21.40
2017-07-03T22:12:08.804Z,21.40
2017-07-03T22:14:37.232Z,21.40
2017-07-03T22:17:05.656Z,21.40
2017-07-03T22:19:34.098Z,21.40
2017-07-03T22:22:02.519Z,21.40
2017-07-03T22:24:30.959Z,21.40
2017-07-03T22:26:59.370Z,21.30
2017-07-03T22:29:27.788Z,21.20
2017-07-03T22:31:56.239Z,21.20
2017-07-03T22:34:24.644Z,21.20
2017-07-03T22:36:53.076Z,21.10
2017-07-03T22:39:21.571Z,21.10
2017-07-03T22:41:50.027Z,21.10
2017-07-03T22:44:19.261Z,21.00
2017-07-03T22:46:47.756Z,21.00
2017-07-03T22:49:17.204Z,20.90
2017-07-03T22:51:45.628Z,20.90
2017-07-03T22:54:14.096Z,20.80
2017-07-03T22:56:42.520Z,20.80
2017-07-03T22:59:10.991Z,20.70
2017-07-03T23:01:39.395Z,20.70
2017-07-03T23:04:08.584Z,20.50
2017-07-03T23:06:37.025Z,20.50
2017-07-03T23:09:04.764Z,20.50
2017-07-03T23:11:33.180Z,20.50
2017-07-03T23:14:01.259Z,20.40
2017-07-03T23:16:31.713Z,20.30
2017-07-03T23:19:00.198Z,20.30
2017-07-03T23:21:29.417Z,20.20
2017-07-03T23:23:57.859Z,20.20
2017-07-03T23:26:26.280Z,20.20
2017-07-03T23:28:54.704Z,20.10
2017-07-03T23:31:23.120Z,20.10
2017-07-03T23:33:52.315Z,20.00
2017-07-03T23:36:21.492Z,20.00
2017-07-03T23:38:49.583Z,20.00
2017-07-03T23:41:18.780Z,20.00
2017-07-03T23:43:47.985Z,19.90
2017-07-03T23:46:17.160Z,19.90
2017-07-03T23:48:45.219Z,19.80
2017-07-03T23:51:13.670Z,19.80
2017-07-03T23:53:42.083Z,19.80
2017-07-03T23:56:10.522Z,19.80
2017-07-03T23:58:38.943Z,19.80
